createdAt,value
2022-08-02T00:00:00.666Z,17.1
2022-08-02T00:03:00.672Z,17.1
2022-08-02T00:06:00.643Z,16.9
2022-08-02T00:09:00.596Z,16.9
2022-08-02T00:12:00.708Z,16.9
2022-08-02T00:15:00.580Z,16.9
2022-08-02T00:18:00.600Z,16.9
2022-08-02T00:21:00.602Z,16.9
2022-08-02T00:24:30.267Z,16.9
2022-08-02T00:27:00.617Z,16.9
2022-08-02T00:30:00.668Z,16.9
2022-08-02T00:33:00.607Z,16.9
2022-08-02T00:36:00.671Z,16.9
2022-08-02T00:39:00.625Z,16.9
2022-08-02T00:42:00.625Z,16.4
2022-08-02T00:45:00.606Z,16.4
2022-08-02T00:48:00.627Z,16.4
2022-08-02T00:51:00.632Z,16.4
2022-08-02T00:54:00.640Z,16.4
2022-08-02T00:57:00.645Z,16.2
2022-08-02T01:00:00.658Z,16.2
2022-08-02T01:03:00.645Z,16.2
2022-08-02T01:06:12.028Z,16.2
2022-08-02T01:09:00.611Z,16.2
2022-08-02T01:12:02.973Z,16.2
2022-08-02T01:15:00.630Z,16.2
2022-08-02T01:18:00.620Z,15.9
2022-08-02T01:21:00.655Z,15.9
2022-08-02T01:24:00.624Z,15.9
2022-08-02T01:27:00.619Z,15.9
2022-08-02T01:30:00.690Z,15.9
2022-08-02T01:33:00.602Z,15.9
2022-08-02T01:36:00.663Z,15.9
2022-08-02T01:39:00.597Z,15.9
2022-08-02T01:42:00.628Z,15.9
2022-08-02T01:45:00.675Z,15.9
2022-08-02T01:48:00.673Z,15.6
2022-08-02T01:51:00.615Z,15.6
2022-08-02T01:54:00.691Z,15.6
2022-08-02T01:57:00.627Z,15.6
2022-08-02T02:00:01.861Z,15.6
2022-08-02T02:03:00.646Z,15.6
2022-08-02T02:06:00.668Z,15.6
2022-08-02T02:09:00.647Z,15.3
2022-08-02T02:12:12.357Z,15.3
2022-08-02T02:15:00.629Z,15.3
2022-08-02T02:18:13.825Z,15.3
2022-08-02T02:21:00.629Z,15.3
2022-08-02T02:24:00.616Z,15.3
2022-08-02T02:27:00.668Z,15.3
2022-08-02T02:30:00.673Z,15.3
2022-08-02T02:33:00.620Z,15.3
2022-08-02T02:36:00.656Z,15.3
2022-08-02T02:39:00.639Z,14.8
2022-08-02T02:42:00.618Z,14.9
2022-08-02T02:45:00.615Z,14.9
2022-08-02T02:48:00.603Z,14.9
2022-08-02T02:51:00.650Z,14.9
2022-08-02T02:54:34.715Z,14.9
2022-08-02T02:57:00.619Z,14.9
2022-08-02T03:00:00.626Z,14.9
2022-08-02T03:03:00.620Z,14.9
2022-08-02T03:06:00.641Z,14.9
2022-08-02T03:09:00.585Z,14.9
2022-08-02T03:12:00.674Z,14.9
2022-08-02T03:15:00.620Z,14.3
2022-08-02T03:18:00.636Z,14.3
2022-08-02T03:21:00.578Z,14.3
2022-08-02T03:24:00.613Z,14.3
2022-08-02T03:27:00.615Z,14.3
2022-08-02T03:30:00.613Z,14.3
2022-08-02T03:33:00.580Z,14.3
2022-08-02T03:36:00.619Z,14.3
2022-08-02T03:39:00.645Z,13.9
2022-08-02T03:42:00.657Z,13.8
2022-08-02T03:45:08.660Z,13.8
2022-08-02T03:48:00.620Z,13.8
2022-08-02T03:51:00.643Z,13.8
2022-08-02T03:54:00.632Z,13.8
2022-08-02T03:57:00.632Z,13.8
2022-08-02T04:00:00.659Z,13.8
2022-08-02T04:03:00.648Z,13.8
2022-08-02T04:06:04.943Z,13.8
2022-08-02T04:09:00.662Z,13.8
2022-08-02T04:12:00.679Z,13.8
2022-08-02T04:15:00.794Z,13.8
2022-08-02T04:18:00.685Z,13.8
2022-08-02T04:21:00.649Z,13.8
2022-08-02T04:24:00.638Z,13.8
2022-08-02T04:27:50.229Z,13.8
2022-08-02T04:30:00.665Z,13.8
2022-08-02T04:33:00.622Z,13.8
2022-08-02T04:36:00.656Z,13.8
2022-08-02T04:39:00.803Z,13.8
2022-08-02T04:42:00.662Z,13.8
2022-08-02T04:45:00.880Z,13.8
2022-08-02T04:48:06.219Z,13.8
2022-08-02T04:51:00.604Z,13.8
2022-08-02T04:54:06.478Z,14.1
2022-08-02T04:57:00.661Z,14.1
2022-08-02T05:00:00.797Z,14.1
2022-08-02T05:03:00.622Z,14.1
2022-08-02T05:06:00.672Z,14.1
2022-08-02T05:09:00.621Z,14.1
2022-08-02T05:12:00.630Z,14.1
2022-08-02T05:15:00.663Z,14.1
2022-08-02T05:18:00.749Z,14.1
2022-08-02T05:21:00.641Z,14.1
2022-08-02T05:24:00.697Z,14.3
2022-08-02T05:27:00.704Z,14.3
2022-08-02T05:30:00.820Z,14.4
2022-08-02T05:33:00.648Z,14.4
2022-08-02T05:36:00.649Z,14.4
2022-08-02T05:39:05.451Z,14.4
2022-08-02T05:42:00.661Z,14.8
2022-08-02T05:45:00.680Z,14.8
2022-08-02T05:48:00.628Z,14.8
2022-08-02T05:51:00.680Z,14.8
2022-08-02T05:54:00.699Z,14.8
2022-08-02T05:57:00.654Z,14.8
2022-08-02T06:00:00.779Z,14.8
2022-08-02T06:03:00.650Z,14.8
2022-08-02T06:06:00.672Z,14.8
2022-08-02T06:09:00.678Z,15.3
2022-08-02T06:12:02.910Z,15.3
2022-08-02T06:15:00.621Z,15.3
2022-08-02T06:18:00.677Z,15.3
2022-08-02T06:24:00.685Z,15.8
2022-08-02T06:27:00.636Z,15.8
2022-08-02T06:30:00.695Z,15.8
2022-08-02T06:33:00.668Z,15.8
2022-08-02T06:36:01.145Z,16.3
2022-08-02T06:39:00.679Z,16.3
2022-08-02T06:42:00.674Z,16.3
2022-08-02T06:45:00.626Z,16.3
2022-08-02T06:48:00.702Z,16.8
2022-08-02T06:51:00.616Z,16.8
2022-08-02T06:54:00.674Z,16.8
2022-08-02T06:57:00.645Z,16.8
2022-08-02T07:00:00.704Z,17.3
2022-08-02T07:03:00.630Z,17.3
2022-08-02T07:06:00.674Z,17.3
2022-08-02T07:09:21.491Z,17.3
2022-08-02T07:12:00.654Z,17.8
2022-08-02T07:15:00.722Z,17.9
2022-08-02T07:18:00.679Z,17.9
2022-08-02T07:21:00.631Z,17.9
2022-08-02T07:24:00.645Z,17.9
2022-08-02T07:27:12.920Z,18.3
2022-08-02T07:30:00.767Z,18.3
2022-08-02T07:33:00.656Z,18.3
2022-08-02T07:36:00.660Z,18.3
2022-08-02T07:39:00.650Z,18.9
2022-08-02T07:42:00.691Z,18.9
2022-08-02T07:45:00.672Z,18.9
2022-08-02T07:48:00.665Z,19.3
2022-08-02T07:51:00.647Z,19.3
2022-08-02T07:54:04.001Z,19.3
2022-08-02T07:57:00.636Z,19.3
2022-08-02T08:00:00.655Z,19.9
2022-08-02T08:03:00.745Z,19.9
2022-08-02T08:06:00.678Z,19.9
2022-08-02T08:09:00.701Z,20.4
2022-08-02T08:12:00.670Z,20.4
2022-08-02T08:15:00.678Z,20.4
2022-08-02T08:18:00.685Z,20.4
2022-08-02T08:21:00.667Z,20.9
2022-08-02T08:24:00.725Z,20.9
2022-08-02T08:27:00.742Z,20.9
2022-08-02T08:30:00.700Z,20.9
2022-08-02T08:33:00.714Z,21.4
2022-08-02T08:36:02.811Z,21.4
2022-08-02T08:39:00.654Z,21.4
2022-08-02T08:42:00.690Z,21.4
2022-08-02T08:45:01.094Z,21.4
2022-08-02T08:48:00.750Z,21.9
2022-08-02T08:51:00.605Z,21.9
2022-08-02T08:54:00.655Z,21.9
2022-08-02T08:57:00.648Z,21.9
2022-08-02T09:00:00.710Z,21.9
2022-08-02T09:03:00.672Z,22.4
2022-08-02T09:06:00.676Z,22.4
2022-08-02T09:09:00.695Z,22.4
2022-08-02T09:12:00.659Z,22.4
2022-08-02T09:15:00.674Z,22.4
2022-08-02T09:18:00.639Z,22.4
2022-08-02T09:21:00.661Z,22.4
2022-08-02T09:24:00.658Z,22.9
2022-08-02T09:27:00.657Z,22.9
2022-08-02T09:30:13.855Z,22.9
2022-08-02T09:33:05.801Z,22.9
2022-08-02T09:36:08.204Z,22.9
2022-08-02T09:39:00.666Z,22.9
2022-08-02T09:42:00.677Z,23.5
2022-08-02T09:45:00.671Z,23.5
2022-08-02T09:48:00.784Z,23.5
2022-08-02T09:51:00.660Z,23.5
2022-08-02T09:54:09.168Z,23.5
2022-08-02T09:57:00.701Z,23.5
2022-08-02T10:00:00.705Z,23.9
2022-08-02T10:03:00.656Z,24
2022-08-02T10:06:03.045Z,24
2022-08-02T10:09:00.651Z,24
2022-08-02T10:12:00.682Z,24
2022-08-02T10:15:00.671Z,24
2022-08-02T10:18:01.206Z,24
2022-08-02T10:21:00.696Z,24
2022-08-02T10:24:00.668Z,24.5
2022-08-02T10:27:01.389Z,24.5
2022-08-02T10:30:00.792Z,24.5
2022-08-02T10:33:00.718Z,24.5
2022-08-02T10:36:07.111Z,24.5
2022-08-02T10:39:00.743Z,24.5
2022-08-02T10:42:00.657Z,24.5
2022-08-02T10:45:00.677Z,24.5
2022-08-02T10:48:00.755Z,24.5
2022-08-02T10:51:00.655Z,24.5
2022-08-02T10:54:00.664Z,25
2022-08-02T10:57:01.754Z,25
2022-08-02T11:00:00.675Z,25
2022-08-02T11:03:00.630Z,25
2022-08-02T11:06:00.635Z,25
2022-08-02T11:09:00.630Z,25
2022-08-02T11:12:00.651Z,25
2022-08-02T11:15:00.689Z,25
2022-08-02T11:18:00.681Z,25
2022-08-02T11:21:00.669Z,25
2022-08-02T11:24:00.669Z,25.3
2022-08-02T11:27:00.643Z,25.3
2022-08-02T11:30:00.788Z,25.3
2022-08-02T11:33:00.682Z,25.3
2022-08-02T11:36:00.702Z,25.3
2022-08-02T11:39:00.666Z,25.3
2022-08-02T11:42:00.706Z,25.3
2022-08-02T11:45:01.678Z,25.3
2022-08-02T11:51:00.665Z,25.6
2022-08-02T11:54:00.679Z,25.6
2022-08-02T11:57:00.626Z,25.6
2022-08-02T12:00:00.929Z,25.8
2022-08-02T12:03:00.749Z,25.8
2022-08-02T12:06:10.868Z,25.8
2022-08-02T12:09:00.616Z,25.8
2022-08-02T12:12:00.671Z,25.8
2022-08-02T12:15:00.628Z,25.8
2022-08-02T12:18:00.656Z,25.8
2022-08-02T12:21:00.636Z,25.8
2022-08-02T12:24:01.608Z,25.8
2022-08-02T12:27:00.678Z,26
2022-08-02T12:30:00.667Z,26
2022-08-02T12:33:00.655Z,26
2022-08-02T12:36:00.738Z,26
2022-08-02T12:39:00.611Z,26
2022-08-02T12:42:00.666Z,26
2022-08-02T12:45:00.733Z,26
2022-08-02T12:48:00.683Z,26.2
2022-08-02T12:51:00.650Z,26.2
2022-08-02T12:54:00.745Z,26.2
2022-08-02T12:57:00.697Z,26.2
2022-08-02T13:00:00.775Z,26.2
2022-08-02T13:03:00.662Z,26.2
2022-08-02T13:06:32.277Z,26.2
2022-08-02T13:09:00.683Z,26.6
2022-08-02T13:12:00.732Z,26.6
2022-08-02T13:15:00.662Z,26.6
2022-08-02T13:18:00.652Z,26.6
2022-08-02T13:21:00.724Z,26.6
2022-08-02T13:24:00.654Z,26.7
2022-08-02T13:27:00.627Z,26.7
2022-08-02T13:30:00.759Z,26.7
2022-08-02T13:33:01.470Z,26.7
2022-08-02T13:36:00.677Z,26.7
2022-08-02T13:39:00.735Z,26.7
2022-08-02T13:42:00.667Z,27
2022-08-02T13:45:00.644Z,27
2022-08-02T13:48:10.737Z,27
2022-08-02T13:51:00.626Z,27
2022-08-02T13:54:00.656Z,27
2022-08-02T13:57:00.614Z,27
2022-08-02T14:00:00.711Z,27.1
2022-08-02T14:03:00.639Z,27.1
2022-08-02T14:06:00.717Z,27.1
2022-08-02T14:09:00.627Z,27.1
2022-08-02T14:12:00.653Z,27.1
2022-08-02T14:15:00.672Z,27.1
2022-08-02T14:18:00.699Z,27.1
2022-08-02T14:21:00.594Z,27.1
2022-08-02T14:24:00.626Z,27.1
2022-08-02T14:27:00.687Z,27.1
2022-08-02T14:30:00.673Z,27.1
2022-08-02T14:33:00.620Z,27.1
2022-08-02T14:36:00.651Z,27.1
2022-08-02T14:39:00.674Z,27.1
2022-08-02T14:42:01.106Z,27.1
2022-08-02T14:45:00.648Z,27.1
2022-08-02T14:48:00.642Z,27.2
2022-08-02T14:51:00.654Z,27.2
2022-08-02T14:54:03.470Z,27.2
2022-08-02T14:57:00.659Z,27.2
2022-08-02T15:00:00.675Z,27.2
2022-08-02T15:03:00.733Z,27.2
2022-08-02T15:06:00.624Z,27.2
2022-08-02T15:09:00.909Z,27.2
2022-08-02T15:12:10.488Z,27.2
2022-08-02T15:15:00.687Z,27.2
2022-08-02T15:18:00.674Z,27.2
2022-08-02T15:21:00.621Z,27.2
2022-08-02T15:24:00.622Z,27.2
2022-08-02T15:27:00.637Z,27.4
2022-08-02T15:30:01.161Z,27.4
2022-08-02T15:33:00.658Z,27.4
2022-08-02T15:36:00.635Z,27.4
2022-08-02T15:39:00.690Z,27.4
2022-08-02T15:42:00.669Z,27.4
2022-08-02T15:45:00.692Z,27.4
2022-08-02T15:48:00.633Z,27.4
2022-08-02T15:51:00.628Z,27.4
2022-08-02T15:54:00.652Z,27.4
2022-08-02T15:57:00.643Z,27.4
2022-08-02T16:00:00.664Z,27.4
2022-08-02T16:03:00.650Z,27.4
2022-08-02T16:06:00.690Z,27.4
2022-08-02T16:09:00.667Z,27.4
2022-08-02T16:12:00.628Z,27.4
2022-08-02T16:15:00.610Z,27.4
2022-08-02T16:18:00.653Z,27.4
2022-08-02T16:21:00.602Z,27.4
2022-08-02T16:24:03.359Z,27.4
2022-08-02T16:27:00.615Z,27.4
2022-08-02T16:30:00.660Z,27.4
2022-08-02T16:33:00.639Z,27.4
2022-08-02T16:36:00.641Z,27.4
2022-08-02T16:39:00.613Z,27.4
2022-08-02T16:42:00.626Z,27.4
2022-08-02T16:45:00.601Z,27.4
2022-08-02T16:48:05.771Z,27.4
2022-08-02T16:51:00.804Z,27.4
2022-08-02T16:54:01.290Z,27.4
2022-08-02T16:57:00.703Z,27.4
2022-08-02T17:00:00.774Z,27.4
2022-08-02T17:03:00.653Z,27.4
2022-08-02T17:06:00.639Z,27.4
2022-08-02T17:09:00.794Z,27.4
2022-08-02T17:12:00.646Z,27.4
2022-08-02T17:15:08.863Z,27.4
2022-08-02T17:18:00.612Z,27.4
2022-08-02T17:21:00.622Z,27.4
2022-08-02T17:24:08.007Z,27.3
2022-08-02T17:27:00.616Z,27.3
2022-08-02T17:30:00.728Z,27.3
2022-08-02T17:33:00.606Z,27.3
2022-08-02T17:36:00.644Z,27.3
2022-08-02T17:39:00.615Z,27.3
2022-08-02T17:42:00.646Z,27.3
2022-08-02T17:45:07.193Z,27.3
2022-08-02T17:48:05.614Z,27.3
2022-08-02T17:51:00.590Z,27.3
2022-08-02T17:54:00.623Z,27.3
2022-08-02T17:57:00.626Z,27.3
2022-08-02T18:00:04.909Z,27.3
2022-08-02T18:03:00.626Z,27.3
2022-08-02T18:06:00.663Z,27.3
2022-08-02T18:09:00.687Z,27.3
2022-08-02T18:12:00.635Z,26.8
2022-08-02T18:15:00.610Z,26.8
2022-08-02T18:18:00.684Z,26.8
2022-08-02T18:21:22.777Z,26.8
2022-08-02T18:24:00.675Z,26.8
2022-08-02T18:27:01.149Z,26.8
2022-08-02T18:30:05.024Z,26.8
2022-08-02T18:34:01.738Z,26.8
2022-08-02T18:36:00.648Z,26.8
2022-08-02T18:39:08.675Z,26.8
2022-08-02T18:42:02.174Z,26.8
2022-08-02T18:45:00.642Z,26.8
2022-08-02T18:48:00.673Z,26.3
2022-08-02T18:51:00.852Z,26.3
2022-08-02T18:54:00.694Z,26.3
2022-08-02T18:57:00.655Z,26.3
2022-08-02T19:00:00.660Z,26.3
2022-08-02T19:03:00.693Z,26.3
2022-08-02T19:06:00.652Z,25.8
2022-08-02T19:09:12.861Z,25.8
2022-08-02T19:12:00.606Z,25.8
2022-08-02T19:15:00.621Z,25.8
2022-08-02T19:18:00.619Z,25.7
2022-08-02T19:21:07.275Z,25.7
2022-08-02T19:24:00.607Z,25.3
2022-08-02T19:27:14.586Z,25.3
2022-08-02T19:30:02.652Z,25.3
2022-08-02T19:33:06.942Z,25.3
2022-08-02T19:36:03.738Z,25.3
2022-08-02T19:39:00.628Z,24.8
2022-08-02T19:42:00.619Z,24.8
2022-08-02T19:45:00.594Z,24.8
2022-08-02T19:48:00.622Z,24.8
2022-08-02T19:51:01.946Z,24.8
2022-08-02T19:54:01.037Z,24.3
2022-08-02T19:57:00.597Z,24.3
2022-08-02T20:00:00.702Z,24.3
2022-08-02T20:03:00.687Z,24.3
2022-08-02T20:06:00.623Z,24.3
2022-08-02T20:09:01.703Z,24
2022-08-02T20:12:00.598Z,24
2022-08-02T20:15:00.593Z,23.8
2022-08-02T20:21:00.607Z,23.8
2022-08-02T20:24:00.666Z,23.8
2022-08-02T20:27:00.677Z,23.8
2022-08-02T20:30:00.616Z,23.2
2022-08-02T20:33:21.449Z,23.2
2022-08-02T20:36:00.567Z,23.2
2022-08-02T20:39:00.678Z,23.2
2022-08-02T20:42:07.752Z,23.2
2022-08-02T20:45:00.817Z,22.7
2022-08-02T20:48:00.589Z,22.7
2022-08-02T20:51:01.141Z,22.7
2022-08-02T20:54:00.631Z,22.7
2022-08-02T20:57:00.643Z,22.7
2022-08-02T21:00:00.645Z,22.7
2022-08-02T21:03:00.636Z,22.2
2022-08-02T21:06:00.593Z,22.2
2022-08-02T21:09:00.598Z,22.2
2022-08-02T21:12:00.616Z,22.2
2022-08-02T21:15:00.632Z,22.2
2022-08-02T21:18:03.377Z,22.2
2022-08-02T21:21:00.612Z,22.2
2022-08-02T21:24:01.826Z,22.2
2022-08-02T21:27:00.630Z,22.2
2022-08-02T21:30:00.640Z,22.2
2022-08-02T21:33:00.603Z,21.7
2022-08-02T21:36:00.631Z,21.7
2022-08-02T21:39:05.553Z,21.7
2022-08-02T21:42:00.637Z,21.7
2022-08-02T21:45:00.688Z,21.7
2022-08-02T21:48:00.654Z,21.7
2022-08-02T21:51:00.652Z,21.7
2022-08-02T21:54:19.480Z,21.7
2022-08-02T21:57:00.644Z,21.3
2022-08-02T22:00:00.926Z,21.3
2022-08-02T22:03:00.605Z,21.3
2022-08-02T22:06:00.641Z,21.2
2022-08-02T22:09:00.596Z,21.2
2022-08-02T22:12:00.697Z,21.2
2022-08-02T22:15:00.642Z,21.2
2022-08-02T22:18:00.632Z,21.2
2022-08-02T22:21:00.646Z,21.2
2022-08-02T22:24:00.609Z,21.2
2022-08-02T22:27:00.705Z,21.2
2022-08-02T22:30:00.634Z,21.2
2022-08-02T22:33:00.589Z,20.7
2022-08-02T22:36:00.632Z,20.7
2022-08-02T22:39:00.634Z,20.7
2022-08-02T22:42:07.269Z,20.7
2022-08-02T22:45:00.631Z,20.7
2022-08-02T22:48:00.696Z,20.7
2022-08-02T22:51:00.645Z,20.7
2022-08-02T22:54:00.795Z,20.6
2022-08-02T22:57:00.673Z,20.6
2022-08-02T22:59:01.214Z,23.8
2022-08-02T23:00:00.858Z,20.6
2022-08-02T23:03:00.660Z,20.6
2022-08-02T23:06:00.677Z,20.6
2022-08-02T23:09:00.655Z,20.6
2022-08-02T23:12:00.797Z,20.6
2022-08-02T23:15:00.651Z,20.6
2022-08-02T23:18:00.666Z,20.6
2022-08-02T23:21:00.608Z,20.6
2022-08-02T23:24:00.664Z,20.6
2022-08-02T23:27:00.737Z,20.6
2022-08-02T23:30:00.701Z,20.2
2022-08-02T23:33:00.635Z,20.2
2022-08-02T23:36:00.671Z,20.2
2022-08-02T23:39:00.645Z,20.2
2022-08-02T23:42:00.625Z,20.2
2022-08-02T23:45:00.608Z,20.2
2022-08-02T23:48:00.665Z,20.2
2022-08-02T23:51:00.650Z,20.2
2022-08-02T23:54:00.659Z,20
2022-08-02T23:57:00.597Z,20
